sensor_id;sensor_type;location;lat;lon;timestamp;P1;durP1;ratioP1;P2;durP2;ratioP2
79578;SDS011;69051;52.406;5.280;2024-01-30T00:01:02;32.30;;;17.02;;
79578;SDS011;69051;52.406;5.280;2024-01-30T00:03:29;31.73;;;14.13;;
79578;SDS011;69051;52.406;5.280;2024-01-30T00:05:56;30.05;;;15.55;;
79578;SDS011;69051;52.406;5.280;2024-01-30T00:08:25;29.83;;;14.65;;
79578;SDS011;69051;52.406;5.280;2024-01-30T00:10:52;30.30;;;16.13;;
79578;SDS011;69051;52.406;5.280;2024-01-30T00:13:18;32.08;;;15.70;;
79578;SDS011;69051;52.406;5.280;2024-01-30T00:15:46;28.90;;;14.32;;
79578;SDS011;69051;52.406;5.280;2024-01-30T00:18:12;31.70;;;16.45;;
79578;SDS011;69051;52.406;5.280;2024-01-30T00:20:39;34.75;;;15.00;;
79578;SDS011;69051;52.406;5.280;2024-01-30T00:23:05;33.15;;;15.07;;
79578;SDS011;69051;52.406;5.280;2024-01-30T00:25:32;27.20;;;13.88;;
79578;SDS011;69051;52.406;5.280;2024-01-30T00:27:59;30.75;;;13.88;;
79578;SDS011;69051;52.406;5.280;2024-01-30T00:30:26;31.95;;;16.00;;
79578;SDS011;69051;52.406;5.280;2024-01-30T00:32:53;29.77;;;15.20;;
79578;SDS011;69051;52.406;5.280;2024-01-30T00:35:20;30.35;;;15.30;;
79578;SDS011;69051;52.406;5.280;2024-01-30T00:37:48;28.77;;;16.10;;
79578;SDS011;69051;52.406;5.280;2024-01-30T00:40:15;31.88;;;14.80;;
79578;SDS011;69051;52.406;5.280;2024-01-30T00:42:42;27.88;;;14.15;;
79578;SDS011;69051;52.406;5.280;2024-01-30T00:45:15;29.15;;;14.90;;
79578;SDS011;69051;52.406;5.280;2024-01-30T00:47:42;28.08;;;13.98;;
79578;SDS011;69051;52.406;5.280;2024-01-30T00:50:09;28.92;;;15.43;;
79578;SDS011;69051;52.406;5.280;2024-01-30T00:52:36;29.50;;;15.18;;
79578;SDS011;69051;52.406;5.280;2024-01-30T00:55:03;30.27;;;14.40;;
79578;SDS011;69051;52.406;5.280;2024-01-30T00:57:29;50.10;;;19.35;;
79578;SDS011;69051;52.406;5.280;2024-01-30T00:59:56;31.38;;;16.08;;
79578;SDS011;69051;52.406;5.280;2024-01-30T01:02:23;29.05;;;15.30;;
79578;SDS011;69051;52.406;5.280;2024-01-30T01:04:50;35.45;;;16.77;;
79578;SDS011;69051;52.406;5.280;2024-01-30T01:07:16;36.50;;;15.73;;
79578;SDS011;69051;52.406;5.280;2024-01-30T01:09:42;28.02;;;14.10;;
79578;SDS011;69051;52.406;5.280;2024-01-30T01:12:09;30.63;;;15.90;;
79578;SDS011;69051;52.406;5.280;2024-01-30T01:14:35;32.33;;;15.90;;
79578;SDS011;69051;52.406;5.280;2024-01-30T01:17:02;29.73;;;15.15;;
79578;SDS011;69051;52.406;5.280;2024-01-30T01:19:29;34.42;;;14.38;;
79578;SDS011;69051;52.406;5.280;2024-01-30T01:21:55;31.63;;;14.02;;
79578;SDS011;69051;52.406;5.280;2024-01-30T01:24:23;32.67;;;14.95;;
79578;SDS011;69051;52.406;5.280;2024-01-30T01:26:50;29.80;;;14.10;;
79578;SDS011;69051;52.406;5.280;2024-01-30T01:29:17;32.22;;;14.50;;
79578;SDS011;69051;52.406;5.280;2024-01-30T01:31:44;26.92;;;14.77;;
79578;SDS011;69051;52.406;5.280;2024-01-30T01:34:10;30.10;;;14.43;;
79578;SDS011;69051;52.406;5.280;2024-01-30T01:36:38;30.05;;;13.80;;
79578;SDS011;69051;52.406;5.280;2024-01-30T01:39:05;26.75;;;13.20;;
79578;SDS011;69051;52.406;5.280;2024-01-30T01:41:32;27.35;;;14.18;;
79578;SDS011;69051;52.406;5.280;2024-01-30T01:43:59;30.88;;;16.10;;
79578;SDS011;69051;52.406;5.280;2024-01-30T01:46:29;28.02;;;13.68;;
79578;SDS011;69051;52.406;5.280;2024-01-30T01:48:56;29.25;;;15.10;;
79578;SDS011;69051;52.406;5.280;2024-01-30T01:51:24;33.80;;;15.48;;
79578;SDS011;69051;52.406;5.280;2024-01-30T01:53:51;29.52;;;15.27;;
79578;SDS011;69051;52.406;5.280;2024-01-30T01:56:17;34.00;;;14.77;;
79578;SDS011;69051;52.406;5.280;2024-01-30T01:58:44;31.33;;;14.63;;
79578;SDS011;69051;52.406;5.280;2024-01-30T02:01:12;34.10;;;13.70;;
79578;SDS011;69051;52.406;5.280;2024-01-30T02:03:40;28.10;;;13.30;;
79578;SDS011;69051;52.406;5.280;2024-01-30T02:06:07;29.23;;;14.25;;
79578;SDS011;69051;52.406;5.280;2024-01-30T02:08:33;28.77;;;14.55;;
79578;SDS011;69051;52.406;5.280;2024-01-30T02:11:00;27.60;;;13.93;;
79578;SDS011;69051;52.406;5.280;2024-01-30T02:13:27;33.10;;;13.07;;
79578;SDS011;69051;52.406;5.280;2024-01-30T02:15:53;28.85;;;13.80;;
79578;SDS011;69051;52.406;5.280;2024-01-30T02:18:20;25.25;;;13.32;;
79578;SDS011;69051;52.406;5.280;2024-01-30T02:20:50;30.40;;;13.93;;
79578;SDS011;69051;52.406;5.280;2024-01-30T02:23:20;31.02;;;16.38;;
79578;SDS011;69051;52.406;5.280;2024-01-30T02:25:46;26.75;;;13.23;;
79578;SDS011;69051;52.406;5.280;2024-01-30T02:28:13;30.83;;;16.40;;
79578;SDS011;69051;52.406;5.280;2024-01-30T02:30:40;30.92;;;13.90;;
79578;SDS011;69051;52.406;5.280;2024-01-30T02:33:08;27.63;;;13.52;;
79578;SDS011;69051;52.406;5.280;2024-01-30T02:35:35;30.50;;;16.55;;
79578;SDS011;69051;52.406;5.280;2024-01-30T02:38:02;30.17;;;14.68;;
79578;SDS011;69051;52.406;5.280;2024-01-30T02:40:28;30.50;;;14.07;;
79578;SDS011;69051;52.406;5.280;2024-01-30T02:42:55;27.08;;;15.13;;
79578;SDS011;69051;52.406;5.280;2024-01-30T02:45:22;28.02;;;13.00;;
79578;SDS011;69051;52.406;5.280;2024-01-30T02:47:48;27.92;;;13.98;;
79578;SDS011;69051;52.406;5.280;2024-01-30T02:50:15;33.03;;;14.90;;
79578;SDS011;69051;52.406;5.280;2024-01-30T02:52:42;30.00;;;16.02;;
79578;SDS011;69051;52.406;5.280;2024-01-30T02:55:10;25.83;;;14.40;;
79578;SDS011;69051;52.406;5.280;2024-01-30T02:57:37;31.38;;;15.52;;
79578;SDS011;69051;52.406;5.280;2024-01-30T03:00:05;28.67;;;14.13;;
79578;SDS011;69051;52.406;5.280;2024-01-30T03:02:32;28.20;;;13.45;;
79578;SDS011;69051;52.406;5.280;2024-01-30T03:04:59;25.98;;;14.35;;
79578;SDS011;69051;52.406;5.280;2024-01-30T03:07:26;30.42;;;14.65;;
79578;SDS011;69051;52.406;5.280;2024-01-30T03:09:52;31.13;;;14.63;;
79578;SDS011;69051;52.406;5.280;2024-01-30T03:12:21;27.35;;;14.63;;
79578;SDS011;69051;52.406;5.280;2024-01-30T03:14:48;28.95;;;15.15;;
79578;SDS011;69051;52.406;5.280;2024-01-30T03:17:15;27.80;;;14.80;;
79578;SDS011;69051;52.406;5.280;2024-01-30T03:19:42;26.08;;;14.65;;
79578;SDS011;69051;52.406;5.280;2024-01-30T03:22:08;27.75;;;15.25;;
79578;SDS011;69051;52.406;5.280;2024-01-30T03:24:35;32.67;;;17.45;;
79578;SDS011;69051;52.406;5.280;2024-01-30T03:27:01;32.08;;;16.70;;
79578;SDS011;69051;52.406;5.280;2024-01-30T03:29:28;29.42;;;15.10;;
79578;SDS011;69051;52.406;5.280;2024-01-30T03:31:54;28.02;;;14.05;;
79578;SDS011;69051;52.406;5.280;2024-01-30T03:34:20;26.45;;;13.05;;
79578;SDS011;69051;52.406;5.280;2024-01-30T03:36:47;28.50;;;13.77;;
79578;SDS011;69051;52.406;5.280;2024-01-30T03:39:13;28.40;;;14.05;;
79578;SDS011;69051;52.406;5.280;2024-01-30T03:41:42;27.50;;;14.05;;
79578;SDS011;69051;52.406;5.280;2024-01-30T03:44:09;26.27;;;11.07;;
79578;SDS011;69051;52.406;5.280;2024-01-30T03:46:36;27.00;;;13.73;;
79578;SDS011;69051;52.406;5.280;2024-01-30T03:49:03;31.83;;;12.23;;
79578;SDS011;69051;52.406;5.280;2024-01-30T03:51:29;26.98;;;12.68;;
79578;SDS011;69051;52.406;5.280;2024-01-30T03:53:56;25.00;;;12.85;;
79578;SDS011;69051;52.406;5.280;2024-01-30T03:56:22;28.05;;;13.45;;
79578;SDS011;69051;52.406;5.280;2024-01-30T03:58:49;26.30;;;11.50;;
79578;SDS011;69051;52.406;5.280;2024-01-30T04:01:15;27.90;;;13.43;;
79578;SDS011;69051;52.406;5.280;2024-01-30T04:03:42;26.40;;;11.85;;
79578;SDS011;69051;52.406;5.280;2024-01-30T04:06:10;25.15;;;12.88;;
79578;SDS011;69051;52.406;5.280;2024-01-30T04:08:37;30.05;;;12.50;;
79578;SDS011;69051;52.406;5.280;2024-01-30T04:11:04;36.50;;;14.55;;
79578;SDS011;69051;52.406;5.280;2024-01-30T04:13:34;26.23;;;13.25;;
79578;SDS011;69051;52.406;5.280;2024-01-30T04:16:02;25.20;;;13.23;;
79578;SDS011;69051;52.406;5.280;2024-01-30T04:18:29;22.55;;;13.05;;
79578;SDS011;69051;52.406;5.280;2024-01-30T04:20:55;28.20;;;13.73;;
79578;SDS011;69051;52.406;5.280;2024-01-30T04:23:22;26.65;;;12.57;;
79578;SDS011;69051;52.406;5.280;2024-01-30T04:25:48;28.40;;;13.95;;
79578;SDS011;69051;52.406;5.280;2024-01-30T04:28:15;27.67;;;13.23;;
79578;SDS011;69051;52.406;5.280;2024-01-30T04:30:41;23.60;;;12.98;;
79578;SDS011;69051;52.406;5.280;2024-01-30T04:33:08;25.75;;;11.82;;
79578;SDS011;69051;52.406;5.280;2024-01-30T04:35:35;29.00;;;13.32;;
79578;SDS011;69051;52.406;5.280;2024-01-30T04:38:02;29.85;;;12.55;;
79578;SDS011;69051;52.406;5.280;2024-01-30T04:40:28;27.48;;;12.77;;
79578;SDS011;69051;52.406;5.280;2024-01-30T04:42:55;24.85;;;13.50;;
79578;SDS011;69051;52.406;5.280;2024-01-30T04:45:21;31.92;;;12.57;;
79578;SDS011;69051;52.406;5.280;2024-01-30T04:47:48;28.30;;;13.80;;
79578;SDS011;69051;52.406;5.280;2024-01-30T04:50:14;26.38;;;12.27;;
79578;SDS011;69051;52.406;5.280;2024-01-30T04:52:41;27.65;;;12.15;;
79578;SDS011;69051;52.406;5.280;2024-01-30T04:55:07;27.05;;;13.15;;
79578;SDS011;69051;52.406;5.280;2024-01-30T04:57:34;26.25;;;11.50;;
79578;SDS011;69051;52.406;5.280;2024-01-30T05:00:01;29.73;;;13.13;;
79578;SDS011;69051;52.406;5.280;2024-01-30T05:02:27;24.52;;;12.75;;
79578;SDS011;69051;52.406;5.280;2024-01-30T05:04:54;26.83;;;13.15;;
79578;SDS011;69051;52.406;5.280;2024-01-30T05:07:21;26.80;;;14.80;;
79578;SDS011;69051;52.406;5.280;2024-01-30T05:09:47;28.45;;;11.90;;
79578;SDS011;69051;52.406;5.280;2024-01-30T05:12:14;27.23;;;14.13;;
79578;SDS011;69051;52.406;5.280;2024-01-30T05:14:40;28.67;;;13.45;;
79578;SDS011;69051;52.406;5.280;2024-01-30T05:17:07;28.25;;;13.35;;
79578;SDS011;69051;52.406;5.280;2024-01-30T05:19:36;32.20;;;12.05;;
79578;SDS011;69051;52.406;5.280;2024-01-30T05:22:02;25.70;;;13.13;;
79578;SDS011;69051;52.406;5.280;2024-01-30T05:24:29;28.30;;;14.38;;
79578;SDS011;69051;52.406;5.280;2024-01-30T05:26:55;26.33;;;12.02;;
79578;SDS011;69051;52.406;5.280;2024-01-30T05:29:22;29.58;;;13.30;;
79578;SDS011;69051;52.406;5.280;2024-01-30T05:31:48;23.45;;;12.20;;
79578;SDS011;69051;52.406;5.280;2024-01-30T05:34:15;29.73;;;12.93;;
79578;SDS011;69051;52.406;5.280;2024-01-30T05:36:42;30.02;;;13.85;;
79578;SDS011;69051;52.406;5.280;2024-01-30T05:39:09;31.08;;;13.85;;
79578;SDS011;69051;52.406;5.280;2024-01-30T05:41:36;27.83;;;13.10;;
79578;SDS011;69051;52.406;5.280;2024-01-30T05:44:02;25.63;;;12.65;;
79578;SDS011;69051;52.406;5.280;2024-01-30T05:46:29;26.40;;;14.30;;
79578;SDS011;69051;52.406;5.280;2024-01-30T05:48:56;25.80;;;13.18;;
79578;SDS011;69051;52.406;5.280;2024-01-30T05:51:22;26.08;;;13.38;;
79578;SDS011;69051;52.406;5.280;2024-01-30T05:53:49;24.65;;;13.60;;
79578;SDS011;69051;52.406;5.280;2024-01-30T05:56:15;25.65;;;12.07;;
79578;SDS011;69051;52.406;5.280;2024-01-30T05:58:42;24.55;;;11.50;;
79578;SDS011;69051;52.406;5.280;2024-01-30T06:01:09;30.55;;;11.90;;
79578;SDS011;69051;52.406;5.280;2024-01-30T06:03:36;30.35;;;14.60;;
79578;SDS011;69051;52.406;5.280;2024-01-30T06:06:02;23.58;;;12.10;;
79578;SDS011;69051;52.406;5.280;2024-01-30T06:08:29;24.83;;;12.00;;
79578;SDS011;69051;52.406;5.280;2024-01-30T06:10:55;27.08;;;11.57;;
79578;SDS011;69051;52.406;5.280;2024-01-30T06:13:22;25.35;;;12.38;;
79578;SDS011;69051;52.406;5.280;2024-01-30T06:15:48;24.20;;;11.48;;
79578;SDS011;69051;52.406;5.280;2024-01-30T06:18:15;27.98;;;13.30;;
79578;SDS011;69051;52.406;5.280;2024-01-30T06:20:41;29.75;;;13.93;;
79578;SDS011;69051;52.406;5.280;2024-01-30T06:23:08;24.10;;;11.25;;
79578;SDS011;69051;52.406;5.280;2024-01-30T06:25:34;23.92;;;11.68;;
79578;SDS011;69051;52.406;5.280;2024-01-30T06:28:01;22.92;;;13.00;;
79578;SDS011;69051;52.406;5.280;2024-01-30T06:30:28;23.88;;;10.85;;
79578;SDS011;69051;52.406;5.280;2024-01-30T06:32:54;20.65;;;10.43;;
79578;SDS011;69051;52.406;5.280;2024-01-30T06:35:21;28.90;;;14.45;;
79578;SDS011;69051;52.406;5.280;2024-01-30T06:37:47;26.20;;;12.52;;
79578;SDS011;69051;52.406;5.280;2024-01-30T06:40:14;26.45;;;12.70;;
79578;SDS011;69051;52.406;5.280;2024-01-30T06:42:40;26.38;;;11.52;;
79578;SDS011;69051;52.406;5.280;2024-01-30T06:45:07;25.13;;;13.05;;
79578;SDS011;69051;52.406;5.280;2024-01-30T06:47:34;23.80;;;10.95;;
79578;SDS011;69051;52.406;5.280;2024-01-30T06:50:00;24.50;;;11.98;;
79578;SDS011;69051;52.406;5.280;2024-01-30T06:52:28;24.67;;;10.65;;
79578;SDS011;69051;52.406;5.280;2024-01-30T06:54:55;25.60;;;12.32;;
79578;SDS011;69051;52.406;5.280;2024-01-30T06:57:21;25.52;;;11.38;;
79578;SDS011;69051;52.406;5.280;2024-01-30T06:59:48;22.83;;;12.35;;
79578;SDS011;69051;52.406;5.280;2024-01-30T07:02:14;29.90;;;12.02;;
79578;SDS011;69051;52.406;5.280;2024-01-30T07:04:41;27.80;;;13.02;;
79578;SDS011;69051;52.406;5.280;2024-01-30T07:07:12;30.17;;;12.65;;
79578;SDS011;69051;52.406;5.280;2024-01-30T07:09:41;26.35;;;11.98;;
79578;SDS011;69051;52.406;5.280;2024-01-30T07:12:07;21.85;;;12.70;;
79578;SDS011;69051;52.406;5.280;2024-01-30T07:14:34;23.52;;;10.07;;
79578;SDS011;69051;52.406;5.280;2024-01-30T07:17:01;23.05;;;12.45;;
79578;SDS011;69051;52.406;5.280;2024-01-30T07:19:28;24.20;;;12.73;;
79578;SDS011;69051;52.406;5.280;2024-01-30T07:21:54;24.55;;;10.63;;
79578;SDS011;69051;52.406;5.280;2024-01-30T07:24:21;28.98;;;11.80;;
79578;SDS011;69051;52.406;5.280;2024-01-30T07:26:47;21.63;;;11.68;;
79578;SDS011;69051;52.406;5.280;2024-01-30T07:29:14;19.33;;;9.43;;
79578;SDS011;69051;52.406;5.280;2024-01-30T07:31:41;19.73;;;10.23;;
79578;SDS011;69051;52.406;5.280;2024-01-30T07:34:08;26.55;;;11.82;;
79578;SDS011;69051;52.406;5.280;2024-01-30T07:36:35;20.50;;;9.73;;
79578;SDS011;69051;52.406;5.280;2024-01-30T07:39:01;20.00;;;11.80;;
79578;SDS011;69051;52.406;5.280;2024-01-30T07:41:28;26.88;;;9.40;;
79578;SDS011;69051;52.406;5.280;2024-01-30T07:43:55;27.52;;;11.00;;
79578;SDS011;69051;52.406;5.280;2024-01-30T07:46:21;20.35;;;10.05;;
79578;SDS011;69051;52.406;5.280;2024-01-30T07:48:48;21.42;;;10.02;;
79578;SDS011;69051;52.406;5.280;2024-01-30T07:51:17;36.40;;;11.13;;
79578;SDS011;69051;52.406;5.280;2024-01-30T07:53:43;22.45;;;9.38;;
79578;SDS011;69051;52.406;5.280;2024-01-30T07:56:11;29.92;;;11.85;;
79578;SDS011;69051;52.406;5.280;2024-01-30T07:58:37;21.23;;;10.35;;
79578;SDS011;69051;52.406;5.280;2024-01-30T08:01:04;25.52;;;10.75;;
79578;SDS011;69051;52.406;5.280;2024-01-30T08:03:30;28.10;;;10.65;;
79578;SDS011;69051;52.406;5.280;2024-01-30T08:05:57;19.75;;;8.93;;
79578;SDS011;69051;52.406;5.280;2024-01-30T08:08:23;18.92;;;8.40;;
79578;SDS011;69051;52.406;5.280;2024-01-30T08:10:50;21.63;;;8.38;;
79578;SDS011;69051;52.406;5.280;2024-01-30T08:13:16;19.15;;;9.25;;
79578;SDS011;69051;52.406;5.280;2024-01-30T08:15:43;25.58;;;11.43;;
79578;SDS011;69051;52.406;5.280;2024-01-30T08:18:09;23.60;;;9.88;;
79578;SDS011;69051;52.406;5.280;2024-01-30T08:20:36;25.60;;;11.15;;
79578;SDS011;69051;52.406;5.280;2024-01-30T08:23:03;22.88;;;11.48;;
79578;SDS011;69051;52.406;5.280;2024-01-30T08:25:29;20.80;;;10.15;;
79578;SDS011;69051;52.406;5.280;2024-01-30T08:27:56;24.42;;;9.48;;
79578;SDS011;69051;52.406;5.280;2024-01-30T08:30:24;20.10;;;7.88;;
79578;SDS011;69051;52.406;5.280;2024-01-30T08:32:50;19.33;;;9.45;;
79578;SDS011;69051;52.406;5.280;2024-01-30T08:35:18;22.00;;;10.85;;
79578;SDS011;69051;52.406;5.280;2024-01-30T08:37:45;20.35;;;9.15;;
79578;SDS011;69051;52.406;5.280;2024-01-30T08:40:11;19.10;;;9.05;;
79578;SDS011;69051;52.406;5.280;2024-01-30T08:42:38;24.55;;;10.88;;
79578;SDS011;69051;52.406;5.280;2024-01-30T08:45:05;20.70;;;9.98;;
79578;SDS011;69051;52.406;5.280;2024-01-30T08:47:31;17.00;;;7.65;;
79578;SDS011;69051;52.406;5.280;2024-01-30T08:49:59;19.85;;;9.20;;
79578;SDS011;69051;52.406;5.280;2024-01-30T08:52:26;25.67;;;10.50;;
79578;SDS011;69051;52.406;5.280;2024-01-30T08:54:53;22.85;;;9.77;;
79578;SDS011;69051;52.406;5.280;2024-01-30T08:57:20;29.17;;;9.98;;
79578;SDS011;69051;52.406;5.280;2024-01-30T08:59:47;22.35;;;8.95;;
79578;SDS011;69051;52.406;5.280;2024-01-30T09:02:14;22.70;;;8.90;;
79578;SDS011;69051;52.406;5.280;2024-01-30T09:04:42;22.15;;;10.25;;
79578;SDS011;69051;52.406;5.280;2024-01-30T09:07:09;20.98;;;8.95;;
79578;SDS011;69051;52.406;5.280;2024-01-30T09:09:39;24.70;;;10.75;;
79578;SDS011;69051;52.406;5.280;2024-01-30T09:12:08;25.92;;;10.30;;
79578;SDS011;69051;52.406;5.280;2024-01-30T09:14:37;27.42;;;11.93;;
79578;SDS011;69051;52.406;5.280;2024-01-30T09:17:05;26.52;;;9.52;;
79578;SDS011;69051;52.406;5.280;2024-01-30T09:19:31;23.65;;;10.30;;
79578;SDS011;69051;52.406;5.280;2024-01-30T09:21:58;26.48;;;9.90;;
79578;SDS011;69051;52.406;5.280;2024-01-30T09:24:25;24.63;;;9.43;;
79578;SDS011;69051;52.406;5.280;2024-01-30T09:26:52;25.35;;;9.77;;
79578;SDS011;69051;52.406;5.280;2024-01-30T09:29:19;20.65;;;9.63;;
79578;SDS011;69051;52.406;5.280;2024-01-30T09:31:45;20.95;;;10.52;;
79578;SDS011;69051;52.406;5.280;2024-01-30T09:34:12;21.60;;;10.45;;
79578;SDS011;69051;52.406;5.280;2024-01-30T09:36:39;23.75;;;10.20;;
79578;SDS011;69051;52.406;5.280;2024-01-30T09:39:06;20.42;;;9.50;;
79578;SDS011;69051;52.406;5.280;2024-01-30T09:41:33;20.10;;;8.40;;
79578;SDS011;69051;52.406;5.280;2024-01-30T09:44:09;26.73;;;11.25;;
79578;SDS011;69051;52.406;5.280;2024-01-30T09:46:36;23.17;;;9.68;;
79578;SDS011;69051;52.406;5.280;2024-01-30T09:49:03;19.85;;;9.27;;
79578;SDS011;69051;52.406;5.280;2024-01-30T09:51:30;21.42;;;10.98;;
79578;SDS011;69051;52.406;5.280;2024-01-30T09:53:57;22.02;;;10.35;;
79578;SDS011;69051;52.406;5.280;2024-01-30T09:56:24;23.45;;;10.55;;
79578;SDS011;69051;52.406;5.280;2024-01-30T09:58:50;23.13;;;11.05;;
79578;SDS011;69051;52.406;5.280;2024-01-30T10:01:17;21.88;;;10.30;;
79578;SDS011;69051;52.406;5.280;2024-01-30T10:03:45;21.17;;;10.68;;
79578;SDS011;69051;52.406;5.280;2024-01-30T10:06:12;22.98;;;10.40;;
79578;SDS011;69051;52.406;5.280;2024-01-30T10:08:38;21.38;;;10.77;;
79578;SDS011;69051;52.406;5.280;2024-01-30T10:11:05;21.38;;;10.05;;
79578;SDS011;69051;52.406;5.280;2024-01-30T10:13:32;20.98;;;8.85;;
79578;SDS011;69051;52.406;5.280;2024-01-30T10:16:00;24.95;;;9.82;;
79578;SDS011;69051;52.406;5.280;2024-01-30T10:18:29;23.38;;;10.95;;
79578;SDS011;69051;52.406;5.280;2024-01-30T10:20:55;26.58;;;10.52;;
79578;SDS011;69051;52.406;5.280;2024-01-30T10:23:22;21.02;;;10.43;;
79578;SDS011;69051;52.406;5.280;2024-01-30T10:25:48;16.67;;;7.80;;
79578;SDS011;69051;52.406;5.280;2024-01-30T10:28:15;27.45;;;8.95;;
79578;SDS011;69051;52.406;5.280;2024-01-30T10:30:41;21.67;;;9.35;;
79578;SDS011;69051;52.406;5.280;2024-01-30T10:33:08;17.33;;;7.55;;
79578;SDS011;69051;52.406;5.280;2024-01-30T10:35:34;18.35;;;7.60;;
79578;SDS011;69051;52.406;5.280;2024-01-30T10:38:01;18.02;;;8.48;;
79578;SDS011;69051;52.406;5.280;2024-01-30T10:40:29;15.30;;;7.75;;
79578;SDS011;69051;52.406;5.280;2024-01-30T10:42:57;21.23;;;8.07;;
79578;SDS011;69051;52.406;5.280;2024-01-30T10:47:57;17.20;;;6.50;;
79578;SDS011;69051;52.406;5.280;2024-01-30T10:50:25;14.38;;;5.65;;
79578;SDS011;69051;52.406;5.280;2024-01-30T10:52:52;11.23;;;4.05;;
79578;SDS011;69051;52.406;5.280;2024-01-30T10:55:20;8.43;;;4.03;;
79578;SDS011;69051;52.406;5.280;2024-01-30T10:57:47;8.93;;;3.60;;
79578;SDS011;69051;52.406;5.280;2024-01-30T11:00:14;10.88;;;3.42;;
79578;SDS011;69051;52.406;5.280;2024-01-30T11:02:46;13.27;;;3.72;;
79578;SDS011;69051;52.406;5.280;2024-01-30T11:05:13;8.93;;;3.40;;
79578;SDS011;69051;52.406;5.280;2024-01-30T11:07:41;13.55;;;3.47;;
79578;SDS011;69051;52.406;5.280;2024-01-30T11:10:08;9.10;;;2.85;;
79578;SDS011;69051;52.406;5.280;2024-01-30T11:12:39;9.38;;;3.47;;
79578;SDS011;69051;52.406;5.280;2024-01-30T11:15:10;14.00;;;3.67;;
79578;SDS011;69051;52.406;5.280;2024-01-30T11:20:16;14.38;;;2.35;;
79578;SDS011;69051;52.406;5.280;2024-01-30T11:22:44;7.15;;;2.40;;
79578;SDS011;69051;52.406;5.280;2024-01-30T11:25:15;10.10;;;2.08;;
79578;SDS011;69051;52.406;5.280;2024-01-30T11:27:44;3.67;;;2.22;;
79578;SDS011;69051;52.406;5.280;2024-01-30T11:30:11;4.22;;;1.63;;
79578;SDS011;69051;52.406;5.280;2024-01-30T11:33:00;6.93;;;2.15;;
79578;SDS011;69051;52.406;5.280;2024-01-30T11:35:42;7.78;;;2.10;;
79578;SDS011;69051;52.406;5.280;2024-01-30T11:38:11;5.05;;;2.08;;
79578;SDS011;69051;52.406;5.280;2024-01-30T11:40:40;7.05;;;1.88;;
79578;SDS011;69051;52.406;5.280;2024-01-30T11:43:08;4.22;;;1.58;;
79578;SDS011;69051;52.406;5.280;2024-01-30T11:45:35;3.55;;;1.38;;
79578;SDS011;69051;52.406;5.280;2024-01-30T11:48:03;7.88;;;1.65;;
79578;SDS011;69051;52.406;5.280;2024-01-30T11:50:31;6.07;;;2.03;;
79578;SDS011;69051;52.406;5.280;2024-01-30T11:53:01;4.72;;;1.83;;
79578;SDS011;69051;52.406;5.280;2024-01-30T11:55:31;6.13;;;2.13;;
79578;SDS011;69051;52.406;5.280;2024-01-30T11:58:00;6.28;;;1.48;;
79578;SDS011;69051;52.406;5.280;2024-01-30T12:00:27;8.10;;;1.40;;
79578;SDS011;69051;52.406;5.280;2024-01-30T12:02:54;6.35;;;1.58;;
79578;SDS011;69051;52.406;5.280;2024-01-30T12:05:27;6.88;;;1.92;;
79578;SDS011;69051;52.406;5.280;2024-01-30T12:07:54;6.75;;;1.48;;
79578;SDS011;69051;52.406;5.280;2024-01-30T12:10:21;5.43;;;1.50;;
79578;SDS011;69051;52.406;5.280;2024-01-30T12:12:48;5.05;;;1.83;;
79578;SDS011;69051;52.406;5.280;2024-01-30T12:15:17;6.68;;;1.80;;
79578;SDS011;69051;52.406;5.280;2024-01-30T12:17:44;6.00;;;1.42;;
79578;SDS011;69051;52.406;5.280;2024-01-30T12:20:12;9.38;;;2.55;;
79578;SDS011;69051;52.406;5.280;2024-01-30T12:22:42;7.32;;;1.38;;
79578;SDS011;69051;52.406;5.280;2024-01-30T12:25:14;12.63;;;3.33;;
79578;SDS011;69051;52.406;5.280;2024-01-30T12:27:45;7.20;;;1.80;;
79578;SDS011;69051;52.406;5.280;2024-01-30T12:30:13;7.43;;;1.85;;
79578;SDS011;69051;52.406;5.280;2024-01-30T12:32:44;14.20;;;2.20;;
79578;SDS011;69051;52.406;5.280;2024-01-30T12:35:18;12.57;;;2.45;;
79578;SDS011;69051;52.406;5.280;2024-01-30T12:37:46;10.10;;;2.17;;
79578;SDS011;69051;52.406;5.280;2024-01-30T12:40:13;9.85;;;2.17;;
79578;SDS011;69051;52.406;5.280;2024-01-30T12:42:43;9.60;;;2.92;;
79578;SDS011;69051;52.406;5.280;2024-01-30T12:45:15;10.07;;;2.55;;
79578;SDS011;69051;52.406;5.280;2024-01-30T12:47:42;8.65;;;2.40;;
79578;SDS011;69051;52.406;5.280;2024-01-30T12:50:09;6.28;;;1.67;;
79578;SDS011;69051;52.406;5.280;2024-01-30T12:52:36;12.23;;;2.15;;
79578;SDS011;69051;52.406;5.280;2024-01-30T12:55:03;10.57;;;2.63;;
79578;SDS011;69051;52.406;5.280;2024-01-30T12:57:30;10.40;;;2.05;;
79578;SDS011;69051;52.406;5.280;2024-01-30T12:59:57;7.90;;;2.20;;
79578;SDS011;69051;52.406;5.280;2024-01-30T13:02:23;7.63;;;2.50;;
79578;SDS011;69051;52.406;5.280;2024-01-30T13:04:50;15.90;;;2.78;;
79578;SDS011;69051;52.406;5.280;2024-01-30T13:07:16;15.38;;;2.58;;
79578;SDS011;69051;52.406;5.280;2024-01-30T13:09:43;9.45;;;2.08;;
79578;SDS011;69051;52.406;5.280;2024-01-30T13:12:10;7.70;;;1.98;;
79578;SDS011;69051;52.406;5.280;2024-01-30T13:14:36;12.75;;;2.55;;
79578;SDS011;69051;52.406;5.280;2024-01-30T13:17:03;8.27;;;2.47;;
79578;SDS011;69051;52.406;5.280;2024-01-30T13:19:29;8.30;;;2.58;;
79578;SDS011;69051;52.406;5.280;2024-01-30T13:21:56;11.70;;;3.22;;
79578;SDS011;69051;52.406;5.280;2024-01-30T13:24:23;10.43;;;3.90;;
79578;SDS011;69051;52.406;5.280;2024-01-30T13:26:49;8.95;;;2.97;;
79578;SDS011;69051;52.406;5.280;2024-01-30T13:29:16;16.92;;;4.45;;
79578;SDS011;69051;52.406;5.280;2024-01-30T13:31:43;11.45;;;4.13;;
79578;SDS011;69051;52.406;5.280;2024-01-30T13:34:10;9.65;;;2.58;;
79578;SDS011;69051;52.406;5.280;2024-01-30T13:36:37;11.80;;;3.20;;
79578;SDS011;69051;52.406;5.280;2024-01-30T13:39:04;10.63;;;2.83;;
79578;SDS011;69051;52.406;5.280;2024-01-30T13:41:34;14.77;;;4.35;;
79578;SDS011;69051;52.406;5.280;2024-01-30T13:44:01;14.88;;;3.20;;
79578;SDS011;69051;52.406;5.280;2024-01-30T13:46:30;8.25;;;3.03;;
79578;SDS011;69051;52.406;5.280;2024-01-30T13:48:57;12.18;;;4.15;;
79578;SDS011;69051;52.406;5.280;2024-01-30T13:51:23;11.23;;;2.95;;
79578;SDS011;69051;52.406;5.280;2024-01-30T13:53:50;12.90;;;2.42;;
79578;SDS011;69051;52.406;5.280;2024-01-30T13:56:16;9.70;;;3.05;;
79578;SDS011;69051;52.406;5.280;2024-01-30T13:58:46;7.90;;;3.85;;
79578;SDS011;69051;52.406;5.280;2024-01-30T14:01:14;12.27;;;4.50;;
79578;SDS011;69051;52.406;5.280;2024-01-30T14:03:41;8.63;;;3.05;;
79578;SDS011;69051;52.406;5.280;2024-01-30T14:06:07;14.52;;;4.60;;
79578;SDS011;69051;52.406;5.280;2024-01-30T14:08:34;8.43;;;3.70;;
79578;SDS011;69051;52.406;5.280;2024-01-30T14:11:00;9.23;;;3.65;;
79578;SDS011;69051;52.406;5.280;2024-01-30T14:13:27;10.23;;;3.63;;
79578;SDS011;69051;52.406;5.280;2024-01-30T14:15:53;9.00;;;4.88;;
79578;SDS011;69051;52.406;5.280;2024-01-30T14:18:20;8.00;;;3.75;;
79578;SDS011;69051;52.406;5.280;2024-01-30T14:20:47;9.05;;;4.75;;
79578;SDS011;69051;52.406;5.280;2024-01-30T14:23:13;8.98;;;3.38;;
79578;SDS011;69051;52.406;5.280;2024-01-30T14:25:40;11.75;;;4.03;;
79578;SDS011;69051;52.406;5.280;2024-01-30T14:28:06;6.85;;;3.78;;
79578;SDS011;69051;52.406;5.280;2024-01-30T14:30:33;6.50;;;2.88;;
79578;SDS011;69051;52.406;5.280;2024-01-30T14:33:00;8.13;;;3.65;;